Aviation Digital Data Service (ADDS)

Output produced by METARs form (1521 UTC 06 February 2016)
found at http://aviationweather.gov/adds/metars/
 
KROC 061442Z 0615/0712 22010KT P6SM OVC040 
     FM061530 25012G20KT 3SM -SHSN OVC030 
     FM061800 24014G22KT P6SM BKN060 
     FM062200 25012KT P6SM SCT200 
     FM070600 22006KT P6SM SCT200